createdAt,value
2022-11-22T00:02:30.723Z,6.80
2022-11-22T00:07:19.113Z,6.70
2022-11-22T00:12:02.742Z,6.70
2022-11-22T00:16:46.231Z,6.70
2022-11-22T00:21:29.849Z,6.70
2022-11-22T00:26:14.673Z,6.70
2022-11-22T00:30:58.114Z,6.70
2022-11-22T00:35:41.536Z,6.70
2022-11-22T00:40:25.027Z,6.60
2022-11-22T00:45:11.086Z,6.70
2022-11-22T00:49:54.936Z,6.80
2022-11-22T00:54:39.775Z,6.80
2022-11-22T00:59:23.232Z,6.70
2022-11-22T01:04:08.188Z,6.70
2022-11-22T01:08:51.920Z,6.70
2022-11-22T01:13:35.822Z,6.70
2022-11-22T01:18:19.417Z,6.70
2022-11-22T01:23:04.303Z,6.70
2022-11-22T01:27:48.029Z,6.70
2022-11-22T01:32:31.642Z,6.70
2022-11-22T01:37:15.537Z,6.60
2022-11-22T01:42:00.654Z,6.50
2022-11-22T01:46:44.265Z,6.50
2022-11-22T01:51:33.797Z,6.50
2022-11-22T01:56:20.984Z,6.50
2022-11-22T02:01:06.545Z,6.50
2022-11-22T02:05:51.165Z,6.50
2022-11-22T02:10:38.818Z,6.50
2022-11-22T02:15:22.266Z,6.50
2022-11-22T02:20:09.351Z,6.50
2022-11-22T02:24:57.618Z,6.60
2022-11-22T02:29:43.660Z,6.50
2022-11-22T02:34:27.082Z,6.50
2022-11-22T02:39:12.897Z,6.40
2022-11-22T02:43:56.436Z,6.30
2022-11-22T02:48:44.248Z,6.30
2022-11-22T02:53:27.906Z,6.40
2022-11-22T02:58:11.338Z,6.40
2022-11-22T03:02:54.823Z,6.40
2022-11-22T03:07:39.643Z,6.30
2022-11-22T03:12:23.113Z,6.30
2022-11-22T03:17:06.629Z,6.30
2022-11-22T03:21:50.081Z,6.20
2022-11-22T03:26:35.088Z,6.20
2022-11-22T03:31:18.537Z,6.20
2022-11-22T03:36:02.306Z,6.30
2022-11-22T03:40:48.195Z,6.30
2022-11-22T03:45:33.084Z,6.30
2022-11-22T03:50:17.220Z,6.30
2022-11-22T03:55:00.625Z,6.30
2022-11-22T03:59:44.098Z,6.30
2022-11-22T04:04:29.013Z,6.30
2022-11-22T04:09:12.684Z,6.30
2022-11-22T04:14:13.404Z,6.40
2022-11-22T04:18:56.839Z,6.40
2022-11-22T04:23:43.221Z,6.50
2022-11-22T04:28:53.569Z,6.40
2022-11-22T04:33:31.559Z,6.40
2022-11-22T04:38:15.922Z,6.40
2022-11-22T04:43:19.170Z,6.40
2022-11-22T04:48:02.601Z,6.40
2022-11-22T04:52:57.917Z,6.40
2022-11-22T04:57:41.459Z,6.30
2022-11-22T05:02:26.310Z,6.20
2022-11-22T05:07:09.772Z,6.30
2022-11-22T05:11:53.840Z,6.30
2022-11-22T05:16:37.324Z,6.20
2022-11-22T05:21:22.216Z,6.20
2022-11-22T05:26:06.441Z,6.20
2022-11-22T05:30:49.895Z,6.10
2022-11-22T05:35:33.505Z,6.10
2022-11-22T05:40:18.530Z,6.20
2022-11-22T05:45:01.934Z,6.20
2022-11-22T05:49:46.321Z,6.20
2022-11-22T05:54:32.112Z,6.20
2022-11-22T05:59:16.974Z,6.20
2022-11-22T06:04:00.443Z,6.20
2022-11-22T06:08:49.360Z,6.20
2022-11-22T06:13:35.565Z,6.20
2022-11-22T06:18:20.393Z,6.10
2022-11-22T06:23:04.072Z,6.10
2022-11-22T06:27:47.825Z,6.10
2022-11-22T06:32:35.007Z,5.90
2022-11-22T06:37:19.856Z,5.90
2022-11-22T06:42:03.330Z,5.90
2022-11-22T06:46:47.155Z,6.00
2022-11-22T06:51:32.325Z,6.00
2022-11-22T06:56:19.270Z,6.00
2022-11-22T07:01:04.126Z,5.90
2022-11-22T07:05:51.775Z,6.00
2022-11-22T07:10:38.708Z,6.00
2022-11-22T07:15:23.628Z,5.90
2022-11-22T07:20:08.303Z,5.90
2022-11-22T07:24:54.140Z,6.00
2022-11-22T07:29:37.581Z,6.00
2022-11-22T07:34:22.877Z,5.90
2022-11-22T07:39:06.570Z,6.00
2022-11-22T07:43:50.136Z,6.00
2022-11-22T07:48:33.924Z,6.00
2022-11-22T07:53:18.886Z,6.10
2022-11-22T07:58:02.884Z,6.10
2022-11-22T08:02:46.427Z,6.10
2022-11-22T08:07:30.016Z,6.20
2022-11-22T08:12:15.099Z,6.10
2022-11-22T08:16:58.567Z,6.10
2022-11-22T08:21:42.302Z,5.90
2022-11-22T08:26:26.422Z,5.90
2022-11-22T08:31:14.214Z,6.00
2022-11-22T08:35:57.896Z,6.10
2022-11-22T08:40:43.823Z,6.00
2022-11-22T08:45:27.475Z,6.20
2022-11-22T08:50:32.210Z,6.20
2022-11-22T08:55:15.785Z,6.30
2022-11-22T08:59:59.261Z,6.40
2022-11-22T09:04:42.913Z,6.50
2022-11-22T09:09:37.238Z,6.60
2022-11-22T09:14:21.462Z,6.60
2022-11-22T09:19:04.927Z,6.60
2022-11-22T09:23:50.254Z,6.80
2022-11-22T09:28:35.701Z,6.90
2022-11-22T09:33:19.183Z,7.00
2022-11-22T09:38:03.803Z,7.00
2022-11-22T09:43:07.951Z,6.90
2022-11-22T09:48:06.831Z,7.00
2022-11-22T09:52:58.591Z,7.20
2022-11-22T09:57:46.717Z,7.40
2022-11-22T10:02:58.865Z,7.40
2022-11-22T10:07:47.318Z,7.30
2022-11-22T10:12:38.948Z,7.60
2022-11-22T10:17:30.093Z,7.80
2022-11-22T10:22:15.678Z,7.80
2022-11-22T10:27:01.609Z,7.60
2022-11-22T10:31:53.552Z,7.70
2022-11-22T10:36:43.588Z,7.70
2022-11-22T10:41:42.110Z,7.50
2022-11-22T10:46:40.270Z,7.50
2022-11-22T10:51:32.092Z,7.60
2022-11-22T10:56:25.470Z,7.70
2022-11-22T11:01:18.806Z,7.50
2022-11-22T11:06:22.709Z,7.70
2022-11-22T11:11:10.169Z,7.80
2022-11-22T11:15:57.148Z,7.90
2022-11-22T11:20:43.701Z,8.10
2022-11-22T11:25:40.519Z,7.90
2022-11-22T11:30:24.515Z,8.10
2022-11-22T11:35:09.226Z,8.10
2022-11-22T11:39:52.993Z,8.20
2022-11-22T11:44:39.073Z,8.30
2022-11-22T11:49:26.696Z,8.40
2022-11-22T11:54:13.138Z,8.50
2022-11-22T11:58:58.159Z,8.30
2022-11-22T12:03:43.045Z,8.40
2022-11-22T12:08:31.637Z,8.40
2022-11-22T12:13:21.624Z,8.20
2022-11-22T12:18:16.287Z,8.20
2022-11-22T12:23:10.688Z,8.40
2022-11-22T12:27:54.168Z,8.60
2022-11-22T12:32:42.565Z,8.50
2022-11-22T12:37:31.356Z,8.40
2022-11-22T12:42:23.222Z,8.50
2022-11-22T12:47:13.601Z,8.50
2022-11-22T12:52:02.777Z,8.40
2022-11-22T12:56:50.420Z,8.40
2022-11-22T13:01:41.926Z,8.20
2022-11-22T13:06:29.238Z,8.10
2022-11-22T13:11:18.649Z,8.00
2022-11-22T13:16:04.706Z,8.10
2022-11-22T13:20:58.768Z,8.20
2022-11-22T13:25:59.261Z,8.20
2022-11-22T13:31:16.752Z,8.10
2022-11-22T13:36:36.548Z,8.10
2022-11-22T13:41:28.874Z,8.00
2022-11-22T13:46:45.674Z,8.00
2022-11-22T13:51:52.254Z,7.90
2022-11-22T13:57:01.718Z,7.90
2022-11-22T14:02:01.610Z,7.80
2022-11-22T14:06:49.276Z,7.60
2022-11-22T14:11:44.351Z,7.60
2022-11-22T14:16:40.707Z,7.50
2022-11-22T14:21:44.257Z,7.50
2022-11-22T14:26:34.849Z,7.50
2022-11-22T14:31:25.885Z,7.40
2022-11-22T14:36:18.962Z,7.40
2022-11-22T14:41:55.516Z,7.30
2022-11-22T14:46:53.129Z,7.30
2022-11-22T14:51:40.806Z,7.10
2022-11-22T14:56:27.676Z,7.10
2022-11-22T15:01:40.260Z,7.00
2022-11-22T15:09:16.475Z,7.00
2022-11-22T15:12:00.647Z,7.00
2022-11-22T15:57:37.448Z,6.50
2022-11-22T16:02:23.394Z,6.50
2022-11-22T16:07:09.097Z,6.50
2022-11-22T16:12:01.814Z,6.40
2022-11-22T16:16:46.145Z,6.40
2022-11-22T16:21:31.648Z,6.40
2022-11-22T16:26:22.099Z,6.40
2022-11-22T16:31:18.090Z,6.40
2022-11-22T16:36:06.261Z,6.30
2022-11-22T16:40:50.933Z,6.30
2022-11-22T16:45:35.217Z,6.30
2022-11-22T16:50:22.411Z,6.30
2022-11-22T16:55:15.548Z,6.30
2022-11-22T17:00:02.049Z,6.40
2022-11-22T17:04:48.220Z,6.30
2022-11-22T17:09:34.831Z,6.40
2022-11-22T17:14:21.678Z,6.40
2022-11-22T17:19:14.530Z,6.30
2022-11-22T17:24:25.538Z,6.20
2022-11-22T17:29:18.417Z,6.20
2022-11-22T17:34:18.750Z,6.20
2022-11-22T17:39:08.701Z,6.20
2022-11-22T17:43:54.634Z,6.20
2022-11-22T17:48:41.277Z,6.20
2022-11-22T17:53:27.646Z,6.20
2022-11-22T17:58:13.306Z,6.20
2022-11-22T18:03:06.762Z,6.20
2022-11-22T18:07:56.051Z,6.40
2022-11-22T18:12:47.105Z,6.20
2022-11-22T18:17:47.193Z,6.20
2022-11-22T18:22:33.164Z,6.50
2022-11-22T18:27:27.562Z,6.20
2022-11-22T18:32:14.807Z,6.10
2022-11-22T18:37:03.583Z,6.10
2022-11-22T18:41:51.626Z,6.00
2022-11-22T18:46:40.757Z,6.00
2022-11-22T18:51:26.646Z,6.00
2022-11-22T18:56:14.680Z,6.00
2022-11-22T19:01:00.804Z,5.90
2022-11-22T19:05:48.119Z,5.90
2022-11-22T19:10:38.455Z,5.80
2022-11-22T19:15:30.647Z,5.80
2022-11-22T19:20:47.368Z,5.80
2022-11-22T19:25:25.905Z,5.80
2022-11-22T19:30:14.535Z,5.80
2022-11-22T19:35:01.426Z,5.80
2022-11-22T19:39:50.583Z,5.80
2022-11-22T19:44:41.689Z,5.80
2022-11-22T19:49:28.608Z,5.80
2022-11-22T19:54:16.250Z,5.80
2022-11-22T19:59:02.526Z,5.80
2022-11-22T20:03:55.888Z,5.80
2022-11-22T20:08:41.088Z,5.80
2022-11-22T20:13:28.136Z,5.80
2022-11-22T20:18:14.172Z,5.70
2022-11-22T20:23:01.167Z,5.70
2022-11-22T20:27:46.180Z,5.70
2022-11-22T20:32:32.213Z,5.70
2022-11-22T20:37:17.533Z,5.60
2022-11-22T20:42:33.017Z,5.60
2022-11-22T20:47:13.152Z,5.60
2022-11-22T20:51:58.206Z,5.60
2022-11-22T20:56:43.317Z,5.60
2022-11-22T21:01:33.610Z,5.60
2022-11-22T21:06:20.402Z,5.60
2022-11-22T21:11:17.633Z,5.60
2022-11-22T21:16:21.465Z,5.70
2022-11-22T21:21:09.563Z,5.60
2022-11-22T21:25:55.954Z,5.60
2022-11-22T21:30:41.307Z,5.60
2022-11-22T21:35:24.837Z,5.60
2022-11-22T21:40:11.206Z,5.50
2022-11-22T21:44:54.627Z,5.50
2022-11-22T21:49:38.090Z,5.50
2022-11-22T21:54:22.203Z,5.50
2022-11-22T21:59:07.896Z,5.50
2022-11-22T22:03:52.307Z,5.50
2022-11-22T22:08:36.548Z,5.40
2022-11-22T22:13:20.489Z,5.50
2022-11-22T22:18:05.634Z,5.50
2022-11-22T22:22:52.036Z,5.40
2022-11-22T22:27:36.111Z,5.40
2022-11-22T22:32:19.676Z,5.30
2022-11-22T22:37:04.754Z,5.40
2022-11-22T22:41:48.289Z,5.40
2022-11-22T22:46:32.220Z,5.40
2022-11-22T22:51:17.289Z,5.40
2022-11-22T22:56:02.375Z,5.40
2022-11-22T23:00:45.971Z,5.30
2022-11-22T23:05:29.455Z,5.30
2022-11-22T23:10:13.058Z,5.30
2022-11-22T23:14:58.181Z,5.30
2022-11-22T23:19:42.314Z,5.40
2022-11-22T23:24:25.814Z,5.30
2022-11-22T23:29:09.379Z,5.30
2022-11-22T23:33:54.316Z,5.30
2022-11-22T23:38:38.123Z,5.30
2022-11-22T23:43:21.541Z,5.30
2022-11-22T23:48:05.299Z,5.30
2022-11-22T23:52:56.299Z,5.20
2022-11-22T23:57:39.848Z,5.20
